createdAt,value
2019-02-11T00:00:50.820Z,1.00
2019-02-11T00:03:19.509Z,1.20
2019-02-11T00:05:48.107Z,1.17
2019-02-11T00:08:16.766Z,0.97
2019-02-11T00:10:45.326Z,1.30
2019-02-11T00:13:13.903Z,1.43
2019-02-11T00:15:42.606Z,1.77
2019-02-11T00:18:11.506Z,1.20
2019-02-11T00:20:40.050Z,1.33
2019-02-11T00:23:08.735Z,1.10
2019-02-11T00:25:37.315Z,1.10
2019-02-11T00:28:06.206Z,1.30
2019-02-11T00:30:34.829Z,1.30
2019-02-11T00:33:03.413Z,1.10
2019-02-11T00:35:31.993Z,1.20
2019-02-11T00:38:00.590Z,1.30
2019-02-11T00:40:29.250Z,1.10
2019-02-11T00:42:57.889Z,1.20
2019-02-11T00:45:26.675Z,1.27
2019-02-11T00:47:55.391Z,1.20
2019-02-11T00:50:23.942Z,1.20
2019-02-11T00:52:52.531Z,1.20
2019-02-11T00:55:21.142Z,1.30
2019-02-11T00:57:49.678Z,1.23
2019-02-11T01:00:18.206Z,1.30
2019-02-11T01:02:46.752Z,1.23
2019-02-11T01:05:34.683Z,1.30
2019-02-11T01:08:03.644Z,1.17
2019-02-11T01:10:32.275Z,1.27
2019-02-11T01:13:00.873Z,1.83
2019-02-11T01:15:29.574Z,1.60
2019-02-11T01:17:58.157Z,1.10
2019-02-11T01:20:26.743Z,1.43
2019-02-11T01:22:55.324Z,1.30
2019-02-11T01:25:23.911Z,1.60
2019-02-11T01:27:52.646Z,1.30
2019-02-11T01:30:21.816Z,1.50
2019-02-11T01:32:50.538Z,1.30
2019-02-11T01:35:19.195Z,1.80
2019-02-11T01:37:47.903Z,1.53
2019-02-11T01:40:16.544Z,1.20
2019-02-11T01:42:45.153Z,1.60
2019-02-11T01:45:14.034Z,1.60
2019-02-11T01:47:42.803Z,1.77
2019-02-11T01:50:13.131Z,1.90
2019-02-11T01:52:41.714Z,1.60
2019-02-11T01:55:10.933Z,1.70
2019-02-11T01:57:39.701Z,1.40
2019-02-11T02:00:13.264Z,1.73
2019-02-11T02:02:42.348Z,1.60
2019-02-11T02:05:10.916Z,2.23
2019-02-11T02:07:39.571Z,1.43
2019-02-11T02:10:14.000Z,3.33
2019-02-11T02:12:42.625Z,3.47
2019-02-11T02:15:13.872Z,1.50
2019-02-11T02:17:42.609Z,2.97
2019-02-11T02:20:15.317Z,4.00
2019-02-11T02:22:43.907Z,1.87
2019-02-11T02:25:12.964Z,1.67
2019-02-11T02:27:41.551Z,1.97
2019-02-11T02:30:14.219Z,1.70
2019-02-11T02:32:42.899Z,1.67
2019-02-11T02:35:11.520Z,1.53
2019-02-11T02:37:40.136Z,7.73
2019-02-11T02:40:10.272Z,1.63
2019-02-11T02:42:38.911Z,1.60
2019-02-11T02:45:09.767Z,2.77
2019-02-11T02:47:38.616Z,7.23
2019-02-11T02:50:09.904Z,1.60
2019-02-11T02:52:38.514Z,2.30
2019-02-11T02:55:08.567Z,1.53
2019-02-11T02:57:37.154Z,3.00
2019-02-11T03:00:25.157Z,1.70
2019-02-11T03:02:53.888Z,2.20
2019-02-11T03:05:22.478Z,1.90
2019-02-11T03:07:51.102Z,2.23
2019-02-11T03:10:19.686Z,2.27
2019-02-11T03:12:48.247Z,3.47
2019-02-11T03:15:17.117Z,1.80
2019-02-11T03:17:45.674Z,3.73
2019-02-11T03:20:14.385Z,1.80
2019-02-11T03:22:42.983Z,2.10
2019-02-11T03:25:11.746Z,2.77
2019-02-11T03:27:40.282Z,2.23
2019-02-11T03:30:10.374Z,3.33
2019-02-11T03:32:39.032Z,1.90
2019-02-11T03:35:08.356Z,1.50
2019-02-11T03:37:36.961Z,2.03
2019-02-11T03:40:08.184Z,2.20
2019-02-11T03:42:36.808Z,2.13
2019-02-11T03:45:08.690Z,2.70
2019-02-11T03:47:37.268Z,2.13
2019-02-11T03:50:08.483Z,2.10
2019-02-11T03:52:37.041Z,2.27
2019-02-11T03:55:07.309Z,2.43
2019-02-11T03:57:36.032Z,2.10
2019-02-11T04:00:07.078Z,2.20
2019-02-11T04:02:35.630Z,2.23
2019-02-11T04:05:05.234Z,2.20
2019-02-11T04:07:33.826Z,2.10
2019-02-11T04:10:02.549Z,2.50
2019-02-11T04:12:31.202Z,3.13
2019-02-11T04:14:59.869Z,2.27
2019-02-11T04:17:28.516Z,2.73
2019-02-11T04:19:57.211Z,2.47
2019-02-11T04:22:25.790Z,2.60
2019-02-11T04:24:54.538Z,2.83
2019-02-11T04:27:23.203Z,2.47
2019-02-11T04:29:51.773Z,2.93
2019-02-11T04:32:20.432Z,3.10
2019-02-11T04:34:49.019Z,2.70
2019-02-11T04:37:17.573Z,2.20
2019-02-11T04:39:46.245Z,2.70
2019-02-11T04:42:14.865Z,2.57
2019-02-11T04:44:43.480Z,7.03
2019-02-11T04:47:12.065Z,2.43
2019-02-11T04:49:40.662Z,2.73
2019-02-11T04:52:09.526Z,2.80
2019-02-11T04:54:44.537Z,2.50
2019-02-11T04:57:13.194Z,3.27
2019-02-11T04:59:41.976Z,2.90
2019-02-11T05:02:10.637Z,3.27
2019-02-11T05:04:58.552Z,4.67
2019-02-11T05:07:27.149Z,3.50
2019-02-11T05:09:55.744Z,3.27
2019-02-11T05:12:24.300Z,3.93
2019-02-11T05:14:52.891Z,3.67
2019-02-11T05:17:21.576Z,5.43
2019-02-11T05:19:50.232Z,3.43
2019-02-11T05:22:18.965Z,4.70
2019-02-11T05:24:47.556Z,3.43
2019-02-11T05:27:16.104Z,3.77
2019-02-11T05:29:44.979Z,4.93
2019-02-11T05:32:13.807Z,3.63
2019-02-11T05:34:42.578Z,3.67
2019-02-11T05:37:11.118Z,4.13
2019-02-11T05:39:39.744Z,4.00
2019-02-11T05:42:08.339Z,4.80
2019-02-11T05:44:37.142Z,3.57
2019-02-11T05:47:05.826Z,3.63
2019-02-11T05:49:34.369Z,4.53
2019-02-11T05:52:03.156Z,3.53
2019-02-11T05:54:31.715Z,4.37
2019-02-11T05:57:00.452Z,3.60
2019-02-11T05:59:29.006Z,3.53
2019-02-11T06:01:57.699Z,3.20
2019-02-11T06:04:26.546Z,3.77
2019-02-11T06:06:55.292Z,3.77
2019-02-11T06:09:23.866Z,3.80
2019-02-11T06:11:52.753Z,4.13
2019-02-11T06:14:21.237Z,2.60
2019-02-11T06:16:50.024Z,2.93
2019-02-11T06:19:18.608Z,6.33
2019-02-11T06:21:47.414Z,5.10
2019-02-11T06:24:16.096Z,4.60
2019-02-11T06:26:44.672Z,6.40
2019-02-11T06:29:13.254Z,3.53
2019-02-11T06:31:41.847Z,4.20
2019-02-11T06:34:10.732Z,4.77
2019-02-11T06:36:39.518Z,3.90
2019-02-11T06:39:08.135Z,3.40
2019-02-11T06:41:36.952Z,4.03
2019-02-11T06:44:05.644Z,3.73
2019-02-11T06:46:34.295Z,8.20
2019-02-11T06:49:02.916Z,5.10
2019-02-11T06:51:32.049Z,4.53
2019-02-11T06:54:00.793Z,3.00
2019-02-11T06:56:29.339Z,3.50
2019-02-11T06:58:57.990Z,3.80
2019-02-11T07:01:26.716Z,4.40
2019-02-11T07:03:55.331Z,3.73
2019-02-11T07:06:23.982Z,8.17
2019-02-11T07:08:52.582Z,3.97
2019-02-11T07:11:21.379Z,6.00
2019-02-11T07:13:50.047Z,4.10
2019-02-11T07:16:18.822Z,5.77
2019-02-11T07:18:47.428Z,6.13
2019-02-11T07:21:16.222Z,3.90
2019-02-11T07:23:44.930Z,9.03
2019-02-11T07:26:13.556Z,8.80
2019-02-11T07:28:42.359Z,7.03
2019-02-11T07:31:11.248Z,4.90
2019-02-11T07:33:40.016Z,3.67
2019-02-11T07:36:09.643Z,6.77
2019-02-11T07:38:38.248Z,5.53
2019-02-11T07:41:07.066Z,3.37
2019-02-11T07:43:37.319Z,4.73
2019-02-11T07:46:07.710Z,7.43
2019-02-11T07:48:36.271Z,3.60
2019-02-11T07:51:05.216Z,4.47
2019-02-11T07:53:33.995Z,4.70
2019-02-11T07:56:02.493Z,6.33
2019-02-11T07:58:31.092Z,5.37
2019-02-11T08:00:59.695Z,4.87
2019-02-11T08:03:28.299Z,5.67
2019-02-11T08:06:02.698Z,10.67
2019-02-11T08:08:31.322Z,6.67
2019-02-11T08:10:59.983Z,4.03
2019-02-11T08:13:48.082Z,5.03
2019-02-11T08:16:18.896Z,4.67
2019-02-11T08:18:49.097Z,5.90
2019-02-11T08:21:17.967Z,5.80
2019-02-11T08:23:46.566Z,4.70
2019-02-11T08:26:15.181Z,6.90
2019-02-11T08:28:43.763Z,4.97
2019-02-11T08:31:12.551Z,5.97
2019-02-11T08:33:41.547Z,4.40
2019-02-11T08:36:10.460Z,7.13
2019-02-11T08:38:39.078Z,7.30
2019-02-11T08:41:07.710Z,5.63
2019-02-11T08:43:36.413Z,4.47
2019-02-11T08:46:05.157Z,6.20
2019-02-11T08:48:33.847Z,4.30
2019-02-11T08:51:02.415Z,5.00
2019-02-11T08:53:31.200Z,4.17
2019-02-11T08:55:59.827Z,3.43
2019-02-11T08:58:28.679Z,3.63
2019-02-11T09:01:06.125Z,4.53
2019-02-11T09:03:34.753Z,3.97
2019-02-11T09:06:03.828Z,6.70
2019-02-11T09:08:32.418Z,3.63
2019-02-11T09:11:01.043Z,7.17
2019-02-11T09:13:31.439Z,5.10
2019-02-11T09:16:00.424Z,6.03
2019-02-11T09:18:29.363Z,5.20
2019-02-11T09:20:57.949Z,5.67
2019-02-11T09:23:26.709Z,7.97
2019-02-11T09:25:55.343Z,4.10
2019-02-11T09:28:24.181Z,5.07
2019-02-11T09:30:52.821Z,3.93
2019-02-11T09:33:21.469Z,3.80
2019-02-11T09:35:50.238Z,4.63
2019-02-11T09:38:18.846Z,2.93
2019-02-11T09:40:47.453Z,3.90
2019-02-11T09:43:16.237Z,6.87
2019-02-11T09:45:44.991Z,3.40
2019-02-11T09:48:13.651Z,3.90
2019-02-11T09:50:45.051Z,3.00
2019-02-11T09:53:13.994Z,2.43
2019-02-11T09:55:42.606Z,4.53
2019-02-11T09:58:11.334Z,9.40
2019-02-11T10:00:39.980Z,5.40
2019-02-11T10:03:08.636Z,8.37
2019-02-11T10:05:37.248Z,4.63
2019-02-11T10:08:07.512Z,5.30
2019-02-11T10:10:36.120Z,6.10
2019-02-11T10:13:04.782Z,4.40
2019-02-11T10:15:33.433Z,4.27
2019-02-11T10:18:02.046Z,7.07
2019-02-11T10:20:30.744Z,7.40
2019-02-11T10:22:59.498Z,3.13
2019-02-11T10:25:30.378Z,4.20
2019-02-11T10:28:10.145Z,3.37
2019-02-11T10:30:38.833Z,5.40
2019-02-11T10:33:07.697Z,5.83
2019-02-11T10:35:42.105Z,3.97
2019-02-11T10:38:07.094Z,2.83
2019-02-11T10:40:35.843Z,6.90
2019-02-11T10:43:04.390Z,3.70
2019-02-11T10:45:36.623Z,5.17
2019-02-11T10:48:05.315Z,3.13
2019-02-11T10:50:34.063Z,5.47
2019-02-11T10:53:02.676Z,5.43
2019-02-11T10:55:31.615Z,5.27
2019-02-11T10:58:00.180Z,4.63
2019-02-11T11:00:29.183Z,4.10
2019-02-11T11:02:58.049Z,6.33
2019-02-11T11:05:27.657Z,4.20
2019-02-11T11:08:02.248Z,2.20
2019-02-11T11:10:33.782Z,5.20
2019-02-11T11:13:02.555Z,4.17
2019-02-11T11:15:32.046Z,5.53
2019-02-11T11:18:00.712Z,3.07
2019-02-11T11:20:29.707Z,5.43
2019-02-11T11:22:58.356Z,7.53
2019-02-11T11:25:27.027Z,6.47
2019-02-11T11:27:55.737Z,5.50
2019-02-11T11:30:24.659Z,5.30
2019-02-11T11:32:53.294Z,4.77
2019-02-11T11:35:22.306Z,12.17
2019-02-11T11:37:50.870Z,4.40
2019-02-11T11:40:21.658Z,17.13
2019-02-11T11:42:50.603Z,9.27
2019-02-11T11:45:22.293Z,5.70
2019-02-11T11:47:51.407Z,4.50
2019-02-11T11:50:20.018Z,4.90
2019-02-11T11:52:48.610Z,4.87
2019-02-11T11:55:22.586Z,7.23
2019-02-11T11:57:51.072Z,4.33
2019-02-11T12:00:30.354Z,5.73
2019-02-11T12:03:05.647Z,2.87
2019-02-11T12:05:34.911Z,2.90
2019-02-11T12:08:03.629Z,6.83
2019-02-11T12:10:32.279Z,5.10
2019-02-11T12:13:20.462Z,5.83
2019-02-11T12:15:31.358Z,11.07
2019-02-11T12:18:00.286Z,11.73
2019-02-11T12:20:32.772Z,9.00
2019-02-11T12:22:59.095Z,7.07
2019-02-11T12:25:29.429Z,10.50
2019-02-11T12:27:58.130Z,11.67
2019-02-11T12:30:28.188Z,10.40
2019-02-11T12:32:56.889Z,8.03
2019-02-11T12:35:25.929Z,9.47
2019-02-11T12:37:55.152Z,6.40
2019-02-11T12:40:23.719Z,7.83
2019-02-11T12:42:53.412Z,10.10
2019-02-11T12:45:24.895Z,11.60
2019-02-11T12:47:53.494Z,9.70
2019-02-11T12:50:22.278Z,4.53
2019-02-11T12:52:51.051Z,4.30
2019-02-11T12:55:21.895Z,4.87
2019-02-11T12:57:50.711Z,9.07
2019-02-11T13:00:21.778Z,5.20
2019-02-11T13:02:50.615Z,9.13
2019-02-11T13:05:22.858Z,7.07
2019-02-11T13:07:50.777Z,3.70
2019-02-11T13:10:20.440Z,7.13
2019-02-11T13:12:49.329Z,6.13
2019-02-11T13:15:53.970Z,5.43
2019-02-11T13:17:57.499Z,4.97
2019-02-11T13:20:26.453Z,3.77
2019-02-11T13:22:55.099Z,4.90
2019-02-11T13:25:24.953Z,4.77
2019-02-11T13:27:53.632Z,4.30
2019-02-11T13:30:24.821Z,3.90
2019-02-11T13:32:53.461Z,3.87
2019-02-11T13:35:23.578Z,5.90
2019-02-11T13:37:55.080Z,4.30
2019-02-11T13:40:22.536Z,2.80
2019-02-11T13:42:51.366Z,6.23
2019-02-11T13:45:21.955Z,4.20
2019-02-11T13:47:56.397Z,7.10
2019-02-11T13:50:23.706Z,5.10
2019-02-11T13:52:52.868Z,4.43
2019-02-11T13:55:22.795Z,5.53
2019-02-11T13:57:52.252Z,3.17
2019-02-11T14:00:33.702Z,2.53
2019-02-11T14:03:04.616Z,5.63
2019-02-11T14:05:34.075Z,5.57
2019-02-11T14:08:03.203Z,4.27
2019-02-11T14:10:32.569Z,5.13
2019-02-11T14:13:01.438Z,5.80
2019-02-11T14:15:30.088Z,4.67
2019-02-11T14:18:13.992Z,4.37
2019-02-11T14:20:40.365Z,2.37
2019-02-11T14:23:09.110Z,5.63
2019-02-11T14:25:44.453Z,6.63
2019-02-11T14:28:08.266Z,6.77
2019-02-11T14:30:36.977Z,5.63
2019-02-11T14:33:06.509Z,6.70
2019-02-11T14:35:35.219Z,4.50
2019-02-11T14:38:03.975Z,4.50
2019-02-11T14:40:32.491Z,6.00
2019-02-11T14:43:02.329Z,6.13
2019-02-11T14:45:32.857Z,5.37
2019-02-11T14:48:01.525Z,4.30
2019-02-11T14:50:30.150Z,6.20
2019-02-11T14:52:58.900Z,6.97
2019-02-11T14:55:27.831Z,3.97
2019-02-11T14:57:57.809Z,6.17
2019-02-11T15:00:30.443Z,4.47
2019-02-11T15:03:01.267Z,3.00
2019-02-11T15:05:29.979Z,6.23
2019-02-11T15:07:58.513Z,5.73
2019-02-11T15:10:27.273Z,3.67
2019-02-11T15:12:55.857Z,5.50
2019-02-11T15:15:24.822Z,6.47
2019-02-11T15:17:53.434Z,3.07
2019-02-11T15:20:22.152Z,4.63
2019-02-11T15:22:52.290Z,5.70
2019-02-11T15:25:20.854Z,2.07
2019-02-11T15:27:49.483Z,4.17
2019-02-11T15:30:20.148Z,3.87
2019-02-11T15:32:48.903Z,2.37
2019-02-11T15:35:17.532Z,5.90
2019-02-11T15:37:46.178Z,4.43
2019-02-11T15:40:22.802Z,4.70
2019-02-11T15:42:51.849Z,3.40
2019-02-11T15:45:20.483Z,2.77
2019-02-11T15:47:50.697Z,2.83
2019-02-11T15:50:20.268Z,2.27
2019-02-11T15:52:49.144Z,6.73
2019-02-11T15:55:19.885Z,2.87
2019-02-11T15:57:48.862Z,3.03
2019-02-11T16:00:20.149Z,5.40
2019-02-11T16:02:51.692Z,2.20
2019-02-11T16:05:20.718Z,4.10
2019-02-11T16:07:49.457Z,4.80
2019-02-11T16:10:23.956Z,4.70
2019-02-11T16:12:55.559Z,3.57
2019-02-11T16:15:24.301Z,4.07
2019-02-11T16:17:52.991Z,4.33
2019-02-11T16:20:22.044Z,7.00
2019-02-11T16:22:50.611Z,5.33
2019-02-11T16:25:19.351Z,2.70
2019-02-11T16:27:47.970Z,4.80
2019-02-11T16:30:19.776Z,4.93
2019-02-11T16:32:48.372Z,6.00
2019-02-11T16:35:18.198Z,5.60
2019-02-11T16:37:47.060Z,4.10
2019-02-11T16:40:21.270Z,3.97
2019-02-11T16:42:49.823Z,5.33
2019-02-11T16:45:18.516Z,8.13
2019-02-11T16:47:47.076Z,9.37
2019-02-11T16:50:17.706Z,7.10
2019-02-11T16:52:48.275Z,2.90
2019-02-11T16:55:16.743Z,6.60
2019-02-11T16:57:45.557Z,2.47
2019-02-11T17:00:19.591Z,6.13
2019-02-11T17:02:48.342Z,3.33
2019-02-11T17:05:17.227Z,3.80
2019-02-11T17:07:48.754Z,3.40
2019-02-11T17:10:17.391Z,4.17
2019-02-11T17:12:46.161Z,5.50
2019-02-11T17:15:21.383Z,5.63
2019-02-11T17:17:50.227Z,3.73
2019-02-11T17:20:18.855Z,4.60
2019-02-11T17:22:47.427Z,3.07
2019-02-11T17:25:16.139Z,4.27
2019-02-11T17:27:44.821Z,3.73
2019-02-11T17:30:16.565Z,4.77
2019-02-11T17:32:45.230Z,4.17
2019-02-11T17:35:13.863Z,8.20
2019-02-11T17:37:43.958Z,3.27
2019-02-11T17:40:14.548Z,2.90
2019-02-11T17:42:43.289Z,8.20
2019-02-11T17:45:14.578Z,3.30
2019-02-11T17:47:43.204Z,5.37
2019-02-11T17:50:12.362Z,4.30
2019-02-11T17:52:40.970Z,4.37
2019-02-11T17:55:14.591Z,4.50
2019-02-11T17:57:43.868Z,5.00
2019-02-11T18:00:31.858Z,4.13
2019-02-11T18:03:00.542Z,3.33
2019-02-11T18:05:29.365Z,5.47
2019-02-11T18:07:59.591Z,3.03
2019-02-11T18:10:28.356Z,3.43
2019-02-11T18:12:57.083Z,4.63
2019-02-11T18:15:25.647Z,3.90
2019-02-11T18:17:54.319Z,7.33
2019-02-11T18:20:22.951Z,5.03
2019-02-11T18:22:51.632Z,3.30
2019-02-11T18:25:20.244Z,4.00
2019-02-11T18:27:49.080Z,4.37
2019-02-11T18:30:17.820Z,7.70
2019-02-11T18:32:46.959Z,4.73
2019-02-11T18:35:18.038Z,3.23
2019-02-11T18:37:46.779Z,3.33
2019-02-11T18:40:16.210Z,5.27
2019-02-11T18:42:44.833Z,3.73
2019-02-11T18:45:16.624Z,6.47
2019-02-11T18:47:45.486Z,5.80
2019-02-11T18:50:15.656Z,6.90
2019-02-11T18:52:44.188Z,3.17
2019-02-11T18:55:17.744Z,5.87
2019-02-11T18:57:46.419Z,5.03
2019-02-11T19:00:18.484Z,5.23
2019-02-11T19:02:47.956Z,8.10
2019-02-11T19:05:17.663Z,7.27
2019-02-11T19:07:46.444Z,5.80
2019-02-11T19:10:16.872Z,9.57
2019-02-11T19:12:45.755Z,7.27
2019-02-11T19:15:16.404Z,4.70
2019-02-11T19:17:45.018Z,6.87
2019-02-11T19:20:17.769Z,5.93
2019-02-11T19:22:46.374Z,6.30
2019-02-11T19:25:14.979Z,4.93
2019-02-11T19:27:43.659Z,7.37
2019-02-11T19:30:21.024Z,4.60
2019-02-11T19:32:49.731Z,3.57
2019-02-11T19:35:19.178Z,4.43
2019-02-11T19:37:47.826Z,7.67
2019-02-11T19:40:18.311Z,7.63
2019-02-11T19:42:46.903Z,6.67
2019-02-11T19:45:20.849Z,5.70
2019-02-11T19:47:49.518Z,7.73
2019-02-11T19:50:19.207Z,4.93
2019-02-11T19:52:48.509Z,6.37
2019-02-11T19:55:17.548Z,5.60
2019-02-11T19:57:46.280Z,6.07
2019-02-11T20:00:18.187Z,7.23
2019-02-11T20:02:47.209Z,5.00
2019-02-11T20:05:15.896Z,5.47
2019-02-11T20:07:44.856Z,7.97
2019-02-11T20:10:16.154Z,5.27
2019-02-11T20:12:44.692Z,6.27
2019-02-11T20:15:15.935Z,8.97
2019-02-11T20:17:45.208Z,16.43
2019-02-11T20:20:18.984Z,4.50
2019-02-11T20:22:47.581Z,6.27
2019-02-11T20:25:16.177Z,4.60
2019-02-11T20:27:44.739Z,5.90
2019-02-11T20:30:16.756Z,9.70
2019-02-11T20:32:45.507Z,5.33
2019-02-11T20:35:14.743Z,9.47
2019-02-11T20:37:43.411Z,6.17
2019-02-11T20:40:17.466Z,4.80
2019-02-11T20:42:46.037Z,5.93
2019-02-11T20:45:20.673Z,11.37
2019-02-11T20:47:49.261Z,5.33
2019-02-11T20:50:17.894Z,6.03
2019-02-11T20:52:46.538Z,8.60
2019-02-11T20:55:15.463Z,10.43
2019-02-11T20:57:45.428Z,9.07
2019-02-11T21:00:16.918Z,6.33
2019-02-11T21:03:08.486Z,9.20
2019-02-11T21:05:35.360Z,9.47
2019-02-11T21:08:04.220Z,6.97
2019-02-11T21:10:32.786Z,5.80
2019-02-11T21:13:01.367Z,9.20
2019-02-11T21:15:29.983Z,5.73
2019-02-11T21:17:58.804Z,6.70
2019-02-11T21:20:33.416Z,11.87
2019-02-11T21:23:01.990Z,7.93
2019-02-11T21:25:30.535Z,8.63
2019-02-11T21:27:59.258Z,9.27
2019-02-11T21:30:27.881Z,5.73
2019-02-11T21:32:56.424Z,7.30
2019-02-11T21:35:25.851Z,10.70
2019-02-11T21:37:54.483Z,12.03
2019-02-11T21:40:23.214Z,9.73
2019-02-11T21:42:51.946Z,13.63
2019-02-11T21:45:20.430Z,6.30
2019-02-11T21:47:48.972Z,7.57
2019-02-11T21:50:26.409Z,9.83
2019-02-11T21:52:49.771Z,7.17
2019-02-11T21:55:20.480Z,15.77
2019-02-11T21:57:49.134Z,8.77
2019-02-11T22:00:20.416Z,8.60
2019-02-11T22:02:49.173Z,10.90
2019-02-11T22:05:17.842Z,7.53
2019-02-11T22:07:46.456Z,7.27
2019-02-11T22:10:23.011Z,7.53
2019-02-11T22:12:51.630Z,7.50
2019-02-11T22:15:20.235Z,10.57
2019-02-11T22:17:49.270Z,9.67
2019-02-11T22:20:19.906Z,11.73
2019-02-11T22:22:48.834Z,11.03
2019-02-11T22:25:17.491Z,8.53
2019-02-11T22:27:46.111Z,11.47
2019-02-11T22:30:20.529Z,11.07
2019-02-11T22:32:49.148Z,11.07
2019-02-11T22:35:17.799Z,9.37
2019-02-11T22:37:48.427Z,6.47
2019-02-11T22:40:17.152Z,5.70
2019-02-11T22:42:45.904Z,7.90
2019-02-11T22:45:16.952Z,6.43
2019-02-11T22:47:45.490Z,9.93
2019-02-11T22:50:14.414Z,12.60
2019-02-11T22:52:43.047Z,7.13
2019-02-11T22:55:31.004Z,10.70
2019-02-11T22:57:59.715Z,10.87
2019-02-11T23:00:35.836Z,10.10
2019-02-11T23:03:05.568Z,11.67
2019-02-11T23:05:34.245Z,9.17
2019-02-11T23:08:02.827Z,8.50
2019-02-11T23:10:31.508Z,7.20
2019-02-11T23:13:00.048Z,6.30
2019-02-11T23:15:28.587Z,9.60
2019-02-11T23:17:58.495Z,10.60
2019-02-11T23:20:27.711Z,8.97
2019-02-11T23:22:56.347Z,7.90
2019-02-11T23:25:24.896Z,9.13
2019-02-11T23:27:53.656Z,7.87
2019-02-11T23:30:22.372Z,9.07
2019-02-11T23:32:51.018Z,10.47
2019-02-11T23:35:19.674Z,8.50
2019-02-11T23:37:48.451Z,6.63
2019-02-11T23:40:16.989Z,6.80
2019-02-11T23:42:45.794Z,8.57
2019-02-11T23:45:14.447Z,8.57
2019-02-11T23:47:43.072Z,10.77
2019-02-11T23:50:12.475Z,7.90
2019-02-11T23:52:41.037Z,8.03
2019-02-11T23:55:10.563Z,11.00
2019-02-11T23:57:39.126Z,8.13
